Gulfport-Biloxi International

Airport
ICAO code: 
KGPT
Summary
ICAO Region: 
NAM
Territory: 
Location: 
Gulfport, Harrison County, Mississippi,
Elevation: 
28 ft
Coordinates: 
Aerial View: 
30° 24' 48.168" N, 89° 4' 22.649" W
Airport BS: 
Bird Strike
Airport WX: 
Cumulonimbus
Metar
Observation
KGPT 051353Z 00000KT 1/4SM FG VV002 16/15 A3012 RMK AO2 SLP198 T01560150 RVRNO
Station
Gulfport, Gulfport-Biloxi Regional Airport
Date/Time
2021-12-05 13:53:00
Wind direction
Wind speed
00 kts
Lowest cloud amount
n/a
Temperature
15.6°C
Dew point
15°C
Humidity
96%
Weather condition
fog

Description

Gulfport-Biloxi International Airport is a joint civil-military public use airport located 6 km northeast of the central business district of Gulfport, a city in Harrison County, Mississippi, United States.

Climatology

Humid “subtropical” climate (Köppen climate classification Cfa) - characterized by hot, humid summers and cool winters. Significant amounts of precipitation occur in all seasons in most areas. Winter rainfall (and sometimes snowfall) is associated with large storms that the westerlies steer from west to east. Most summer rainfall occurs during thunderstorms and occasional tropical storms (hurricanes).

Runways

Designator Length Width Surface Rops
18/36 1504 46 ASP Yes/Yes
4/22 2134 46 ASP No/No
14/32 2744 46 PEM Yes/Yes
Airport map: 
Aerial View: 

Accidents and Serious Incidents at or in the vicinity of KGPT

SKYbrary Partners:

Safety knowledge contributed by: